• Join FlightAware (Why Join?)
  • Login
  • US Flag GB Flag 
06:02 EST


 

Airport Tracker/Info


-or-


 

Live Flight TrackerFlight Track Log ✈ UAL33 ✈ 31-Jul-2013 ✈ KIAH - KORD

Flight Track Log - Related Links

Times and Time Zones

All times are in EDT time to prevent confusion due to time zone crossing. See the UAL33 flight status page for this flight to view local times or setup timezone preferences in your user account.

Time Position Orientation Groundspeed Altitude Reporting Facility
EDT Latitude Longitude Course Direction KTS MPH feet Rate Location/Type
17:32 29.9459 -95.3420 203° Southwest 172 198 1,200  Level FlightAware ADS-B
17:32 29.9426 -95.3446 214° Southwest 180 207 1,300 1,200 Climbing FlightAware ADS-B
17:32 29.9397 -95.3482 227° Southwest 188 216 1,400 900 Climbing FlightAware ADS-B
17:32 29.9366 -95.3556 244° Southwest 200 230 1,500 1,080 Climbing FlightAware ADS-B
17:32 29.9360 -95.3588 258° West 205 236 1,600 1,500 Climbing FlightAware ADS-B
17:32 29.9356 -95.3649 266° West 216 249 1,700 1,200 Climbing FlightAware ADS-B
17:32 29.9361 -95.3700 276° West 222 255 1,800 1,500 Climbing FlightAware ADS-B
17:32 29.9370 -95.3735 287° West 227 261 1,900 1,500 Climbing FlightAware ADS-B
17:32 29.9392 -95.3789 295° West 235 270 2,000 1,500 Climbing FlightAware ADS-B
17:32 29.9412 -95.3829 300° West 240 276 2,100 1,680 Climbing FlightAware ADS-B
17:32 29.9442 -95.3869 311° West 248 285 2,200 1,500 Climbing FlightAware ADS-B
17:32 29.9475 -95.3903 318° Northwest 253 291 2,300 1,500 Climbing FlightAware ADS-B
17:33 29.9517 -95.3935 327° Northwest 259 298 2,400 2,100 Climbing FlightAware ADS-B
17:33 29.9633 -95.3987 344° North 269 310 2,800 2,400 Climbing FlightAware ADS-B
17:33 29.9749 -95.4007 353° North 273 314 3,200 2,160 Climbing FlightAware ADS-B
17:33 29.9950 -95.4034 353° North 277 319 3,700 540 Climbing FlightAware ADS-B
17:34 30.0704 -95.4125 354° North 274 315 3,900 120 Climbing FlightAware ADS-B
17:34 30.0901 -95.4150 354° North 272 313 3,900  Level FlightAware ADS-B
17:35 30.1091 -95.4174 354° North 272 313 3,900  Level FlightAware ADS-B
17:35 30.1287 -95.4198 354° North 272 313 3,900 1,800 Level FlightAware ADS-B
17:36 30.1909 -95.4279 354° North 277 319 5,900 2,520 Climbing FlightAware ADS-B
17:36 30.2014 -95.4296 352° North 278 320 6,300 3,180 Climbing FlightAware ADS-B
17:36 30.2231 -95.4379 336° Northwest 280 322 7,300 3,300 Climbing FlightAware ADS-B
17:37 30.2584 -95.4618 329° Northwest 280 322 9,000 2,640 Climbing FlightAware ADS-B
17:38 30.3467 -95.5224 329° Northwest 330 380 11,900 2,580 Climbing FlightAware ADS-B
17:38 30.3866 -95.5498 329° Northwest 335 386 13,500 3,120 Climbing FlightAware ADS-B
17:39 30.4290 -95.5789 329° Northwest 346 398 15,100 2,940 Climbing FlightAware ADS-B
17:39 30.4710 -95.6079 329° Northwest 355 409 16,500 2,880 Climbing FlightAware ADS-B
17:40 30.5145 -95.6377 329° Northwest 362 417 18,000 2,940 Climbing FlightAware ADS-B
17:40 30.5547 -95.6625 332° Northwest 367 422 19,300 2,520 Climbing FlightAware ADS-B
17:40 30.5668 -95.6691 335° Northwest 370 426 19,500 2,100 Climbing FlightAware ADS-B
17:41 30.6150 -95.6944 336° Northwest 379 436 20,700 2,340 Climbing FlightAware ADS-B
17:41 30.6634 -95.7204 335° Northwest 387 445 21,900 1,560 Climbing FlightAware ADS-B
17:44 30.9270 -95.8618 335° Northwest 451 519 25,600 1,440 Climbing FlightAware ADS-B
17:45 30.9864 -95.8937 335° Northwest 463 533 26,300 1,560 Climbing FlightAware ADS-B
17:45 31.0460 -95.9259 335° Northwest 468 539 27,200 1,620 Climbing FlightAware ADS-B
17:46 31.1289 -95.9660 339° North 478 550 28,300 1,440 Climbing FlightAware ADS-B
17:46 31.1715 -95.9790 345° North 481 554 28,700 1,440 Climbing FlightAware ADS-B
17:47 31.2380 -95.9945 349° North 488 562 29,500 1,500 Climbing FlightAware ADS-B
17:47 31.3137 -96.0122 349° North 494 568 30,300 1,260 Climbing FlightAware ADS-B
17:48 31.3907 -96.0303 349° North 499 574 31,000 1,440 Climbing FlightAware ADS-B
17:49 31.6329 -96.0872 349° North 504 580 33,700 1,560 Climbing FlightAware ADS-B
17:50 31.7116 -96.1057 349° North 503 579 34,700 1,620 Climbing FlightAware ADS-B
17:51 31.8056 -96.1279 349° North 503 579 35,800 1,680 Climbing FlightAware ADS-B
17:51 31.8940 -96.1488 349° North 493 567 37,000 1,800 Climbing FlightAware ADS-B
17:52 31.9672 -96.1661 349° North 486 559 38,000 1,620 Climbing FlightAware ADS-B
17:52 32.0397 -96.1833 349° North 486 559 38,800 1,380 Climbing FlightAware ADS-B
17:53 32.1085 -96.1997 349° North 475 547 39,500 900 Climbing FlightAware ADS-B
17:55 32.3100 -96.2190 359° North 471 542 40,700 540 Climbing FlightAware
17:56 32.4560 -96.2210 359° North 466 536 41,000 180 Climbing FlightAware
17:56 32.5271 -96.2221 359° North 469 540 41,000  Level FlightAware ADS-B
17:57 32.5960 -96.2229 359° North 465 535 41,000  Level FlightAware ADS-B
17:57 32.6615 -96.2237 359° North 466 536 41,000  Level FlightAware ADS-B
17:58 32.7766 -96.2251 359° North 466 536 41,000  Level FlightAware ADS-B
17:59 32.9140 -96.2270 359° North 470 541 41,000  Level FlightAware
17:59 32.9406 -96.2270 360° North 468 539 41,000  Level FlightAware ADS-B
18:03 33.3930 -96.2320 359° North 462 532 41,000  Level FlightAware
18:04 33.4650 -96.2330 359° North 462 532 41,000  Level FlightAware
18:04 33.5310 -96.2310 North 465 535 41,000  Level FlightAware
18:05 33.6100 -96.2090 13° North 471 542 41,000  Level FlightAware
18:05 33.7160 -96.1730 16° North 471 542 41,000  Level FlightAware
18:06 33.8150 -96.1400 15° North 472 543 41,000  Level FlightAware
18:07 33.8900 -96.1140 16° North 471 542 41,000  Level FlightAware
18:07 33.9670 -96.0880 16° North 472 543 41,000  Level FlightAware
18:08 34.0430 -96.0620 16° North 471 542 41,000  Level FlightAware
18:09 34.1080 -96.0390 16° North 470 541 41,000  Level FlightAware
18:09 34.1850 -96.0130 16° North 471 542 41,000  Level FlightAware
18:10 34.2600 -95.9870 16° North 471 542 41,000  Level FlightAware
18:10 34.3270 -95.9640 16° North 469 540 41,000  Level FlightAware
18:11 34.4020 -95.9380 16° North 469 540 41,000  Level FlightAware
18:11 34.4690 -95.9150 16° North 469 540 41,000  Level FlightAware
18:12 34.5510 -95.8860 16° North 470 541 41,000  Level FlightAware
18:13 34.6190 -95.8630 16° North 471 542 41,000  Level FlightAware
18:13 34.6940 -95.8370 16° North 472 543 41,000  Level FlightAware
18:14 34.7700 -95.8100 16° North 472 543 41,000  Level FlightAware
18:14 34.8310 -95.7850 19° North 476 548 41,000  Level FlightAware
18:15 34.9050 -95.7180 37° Northeast 494 568 41,000  Level FlightAware
18:16 34.9750 -95.6360 44° Northeast 492 566 41,000  Level FlightAware
18:16 35.0380 -95.5640 43° Northeast 491 565 41,000  Level FlightAware
18:17 35.0890 -95.5060 43° Northeast 491 565 41,000  Level FlightAware
18:18 35.1390 -95.4480 43° Northeast 491 565 41,000  Level FlightAware
18:18 35.1900 -95.3900 43° Northeast 491 565 41,000  Level FlightAware
18:19 35.2410 -95.3320 43° Northeast 491 565 41,000  Level FlightAware
18:19 35.2920 -95.2740 43° Northeast 491 565 41,000  Level FlightAware
18:20 35.4440 -95.1900 24° Northeast 485 558 41,000  Level FlightAware
18:21 35.4990 -95.1410 36° Northeast 485 558 41,000  Level FlightAware
18:21 35.5550 -95.0910 36° Northeast 485 558 41,000  Level FlightAware
18:22 35.6750 -94.9820 36° Northeast 487 560 41,000  Level FlightAware
18:23 35.7380 -94.9250 36° Northeast 488 562 41,000  Level FlightAware
18:23 35.7970 -94.8720 36° Northeast 488 562 41,000  Level FlightAware
18:24 35.8630 -94.8120 36° Northeast 489 563 41,000  Level FlightAware
18:25 35.9280 -94.7530 36° Northeast 487 560 41,000  Level FlightAware
18:25 35.9870 -94.6990 37° Northeast 487 560 41,000  Level FlightAware
18:26 36.0530 -94.6390 36° Northeast 486 559 41,000  Level FlightAware
18:26 36.1170 -94.5800 37° Northeast 486 559 41,000  Level FlightAware
18:27 36.1830 -94.5200 36° Northeast 487 560 41,000  Level FlightAware
18:27 36.2480 -94.4600 37° Northeast 486 559 41,000  Level FlightAware
18:28 36.3050 -94.4080 36° Northeast 485 558 41,000  Level FlightAware
18:29 36.3700 -94.3480 37° Northeast 484 557 41,000  Level FlightAware
18:29 36.4340 -94.2880 37° Northeast 483 556 41,000  Level FlightAware
18:30 36.5000 -94.2280 36° Northeast 483 556 41,000  Level FlightAware
18:30 36.5570 -94.1750 37° Northeast 482 555 41,000  Level FlightAware
18:31 36.6130 -94.1220 37° Northeast 483 556 41,000  Level FlightAware
18:32 36.6840 -94.0560 37° Northeast 484 557 41,000  Level FlightAware
18:32 36.7490 -93.9960 36° Northeast 484 557 41,000  Level FlightAware
18:33 36.8060 -93.9420 37° Northeast 483 556 41,000  Level FlightAware
18:33 36.8710 -93.8810 37° Northeast 483 556 41,000  Level FlightAware
18:34 36.9340 -93.8220 37° Northeast 483 556 41,000  Level FlightAware
18:34 37.0020 -93.7690 32° Northeast 463 533 41,000  Level FlightAware
18:35 37.0670 -93.7500 13° North 434 499 41,000  Level FlightAware
18:36 37.1360 -93.7500 360° North 426 490 41,000  Level FlightAware
18:36 37.2020 -93.7520 359° North 425 489 41,000  Level FlightAware
18:37 37.2720 -93.7530 359° North 427 491 41,000  Level FlightAware
18:37 37.3480 -93.7540 359° North 429 494 41,000  Level FlightAware
18:38 37.4110 -93.7560 359° North 429 494 41,000  Level FlightAware
18:39 37.4860 -93.7570 359° North 427 491 41,000  Level FlightAware
18:39 37.5530 -93.7590 359° North 426 490 41,000  Level FlightAware
18:40 37.5970 -93.7540 North 435 501 41,000  Level FlightAware
18:40 37.6580 -93.7180 25° Northeast 464 534 41,000  Level FlightAware
18:41 37.7160 -93.6480 44° Northeast 488 562 41,000  Level FlightAware
18:41 37.7630 -93.5680 53° Northeast 485 558 41,000  Level FlightAware
18:42 37.8190 -93.4950 46° Northeast 478 550 41,000  Level FlightAware
18:42 37.8700 -93.4310 45° Northeast 479 551 41,000  Level FlightAware
18:43 37.9260 -93.3620 44° Northeast 480 552 41,000  Level FlightAware
18:44 37.9800 -93.2950 44° Northeast 480 552 41,000  Level FlightAware
18:44 38.0410 -93.2190 44° Northeast 480 552 41,000  Level FlightAware
18:45 38.0920 -93.1570 44° Northeast 480 552 41,000  Level FlightAware
18:45 38.1430 -93.0930 45° Northeast 480 552 41,000  Level FlightAware
18:46 38.2060 -93.0150 44° Northeast 481 554 41,000  Level FlightAware
18:47 38.2630 -92.9440 44° Northeast 485 558 41,000  Level FlightAware
18:47 38.3160 -92.8770 45° Northeast 488 562 41,000  Level FlightAware
18:48 38.3730 -92.8060 44° Northeast 490 564 41,000  Level FlightAware
18:48 38.4260 -92.7390 45° Northeast 490 564 41,000  Level FlightAware
18:49 38.4990 -92.6480 44° Northeast 488 562 41,000  Level FlightAware
18:50 38.5670 -92.5610 45° Northeast 485 558 41,000  Level FlightAware
18:50 38.6250 -92.4890 44° Northeast 485 558 41,000  Level FlightAware
18:51 38.6790 -92.4190 45° Northeast 488 562 41,000  Level FlightAware
18:51 38.7430 -92.3380 45° Northeast 490 564 41,000  Level FlightAware
18:52 38.8250 -92.2340 45° Northeast 491 565 41,000  Level FlightAware
18:53 38.8870 -92.1530 45° Northeast 490 564 41,000  Level FlightAware
18:54 38.9620 -92.0590 44° Northeast 490 564 41,000  Level FlightAware
18:55 39.0430 -91.9530 45° Northeast 492 566 41,000  Level FlightAware
18:55 39.0940 -91.8860 46° Northeast 492 566 41,000  Level FlightAware
18:56 39.1860 -91.7690 45° Northeast 494 568 41,000  Level FlightAware
18:57 39.2410 -91.6950 46° Northeast 492 566 41,000  Level FlightAware
18:57 39.2970 -91.6230 45° Northeast 491 565 41,000 -300 Level FlightAware
18:58 39.3560 -91.5450 46° Northeast 487 560 40,700 -720 Descending FlightAware
18:59 39.4200 -91.4620 45° Northeast 482 555 40,100 -780 Descending FlightAware
18:59 39.4680 -91.3980 46° Northeast 473 544 39,800 -540 Descending FlightAware
19:00 39.5220 -91.3270 45° Northeast 462 532 39,500 -420 Descending FlightAware
19:00 39.5780 -91.2540 45° Northeast 461 531 39,300 -1,080 Descending FlightAware
19:01 39.6330 -91.1810 46° Northeast 460 529 38,200 -1,560 Descending FlightAware
19:02 39.6880 -91.1080 46° Northeast 458 527 37,500 -1,140 Descending FlightAware
19:02 39.7390 -91.0500 41° Northeast 454 522 36,900 -1,200 Descending FlightAware
19:03 39.7960 -90.9930 38° Northeast 451 519 36,200 -1,200 Descending FlightAware
19:03 39.8550 -90.9330 38° Northeast 454 522 35,500 -1,080 Descending FlightAware
19:04 39.9120 -90.8760 37° Northeast 458 527 35,000 -540 Descending FlightAware
19:04 39.9750 -90.8130 37° Northeast 458 527 34,900 -540 Descending FlightAware
19:05 40.0460 -90.7410 38° Northeast 461 531 34,300 -1,020 Descending FlightAware
19:06 40.1060 -90.6800 38° Northeast 466 536 33,600 -1,140 Descending FlightAware
19:06 40.1700 -90.6150 38° Northeast 467 537 33,000 -600 Descending FlightAware
19:07 40.2200 -90.5640 38° Northeast 468 539 33,000  Level FlightAware
19:07 40.2860 -90.4970 38° Northeast 470 541 33,000  Level FlightAware
19:08 40.3460 -90.4350 38° Northeast 471 542 33,000  Level FlightAware
19:09 40.4040 -90.3730 39° Northeast 475 547 33,000  Level FlightAware
19:09 40.4670 -90.2900 45° Northeast 483 556 33,000 -900 Level FlightAware
19:10 40.5240 -90.2060 48° Northeast 491 565 31,900 -1,440 Descending FlightAware
19:11 40.5850 -90.1160 48° Northeast 515 593 31,200 -1,080 Descending FlightAware
19:11 40.6420 -90.0310 49° Northeast 518 596 30,600 -1,140 Descending FlightAware
19:12 40.7000 -89.9450 48° Northeast 512 589 29,900 -1,260 Descending FlightAware
19:12 40.7500 -89.8710 48° Northeast 508 585 29,200 -1,440 Descending FlightAware
19:13 40.8120 -89.7780 49° Northeast 504 580 28,200 -1,440 Descending FlightAware
19:14 40.8600 -89.7050 49° Northeast 502 578 27,500 -1,380 Descending FlightAware
19:14 40.9150 -89.6230 48° Northeast 498 573 26,700 -1,260 Descending FlightAware
19:15 40.9690 -89.5400 49° Northeast 495 570 26,000 -1,200 Descending FlightAware
19:15 41.0210 -89.4620 49° Northeast 491 565 25,300 -1,620 Descending FlightAware
19:16 41.0700 -89.3870 49° Northeast 485 558 24,200 -2,220 Descending FlightAware
19:16 41.1210 -89.3100 49° Northeast 484 557 22,700 -2,700 Descending FlightAware
19:17 41.1770 -89.2240 49° Northeast 480 552 21,000 -2,700 Descending FlightAware
19:18 41.2210 -89.1570 49° Northeast 476 548 19,700 -2,520 Descending FlightAware
19:18 41.2710 -89.0810 49° Northeast 469 540 18,200 -2,640 Descending FlightAware
19:19 41.3230 -89.0010 49° Northeast 459 528 16,600 -2,580 Descending FlightAware
19:19 41.3750 -88.9210 49° Northeast 450 518 15,100 -2,460 Descending FlightAware
19:20 41.4240 -88.8460 49° Northeast 435 501 13,700 -2,340 Descending FlightAware
19:21 41.4630 -88.7860 49° Northeast 424 488 12,500 -2,220 Descending FlightAware
19:21 41.5070 -88.7120 52° Northeast 411 473 11,200 -1,260 Descending FlightAware
19:22 41.5410 -88.6330 60° Northeast 371 427 11,000 -180 Descending FlightAware
19:22 41.5670 -88.5670 62° Northeast 369 425 11,000  Level FlightAware
19:23 41.5980 -88.4930 61° Northeast 371 427 11,000  Level FlightAware
19:24 41.6320 -88.4270 55° Northeast 367 422 11,000  Level FlightAware
19:24 41.6660 -88.3700 51° Northeast 369 425 11,000  Level FlightAware
19:25 41.7030 -88.3050 53° Northeast 367 422 11,000  Level FlightAware
19:25 41.7410 -88.2410 51° Northeast 362 417 11,000 -300 Level FlightAware
19:26 41.7770 -88.1790 52° Northeast 333 383 10,700 -480 Descending FlightAware
19:26 41.8050 -88.1300 53° Northeast 316 364 10,500 -660 Descending FlightAware
19:27 41.8200 -88.0870 65° Northeast 310 357 10,100 -1,140 Descending FlightAware
19:27 41.8280 -88.0500 74° East 309 356 9,700 -1,200 Descending FlightAware
19:27 41.8370 -88.0120 72° East 306 352 9,300 -1,080 Descending FlightAware
19:28 41.8450 -87.9770 73° East 303 349 9,000 -1,080 Descending FlightAware
19:28 41.8530 -87.9420 73° East 298 343 8,600 -1,140 Descending FlightAware
19:29 41.8620 -87.9000 74° East 296 341 8,200 -1,140 Descending FlightAware
19:29 41.8700 -87.8640 73° East 294 338 7,800 -1,380 Descending FlightAware
19:29 41.8760 -87.8360 74° East 294 338 7,400 -1,380 Descending FlightAware
19:29 41.8830 -87.8010 75° East 295 339 7,000 -780 Descending FlightAware
19:30 41.8840 -87.7820 86° East 295 339 7,000 -480 Level FlightAware
19:30 41.8840 -87.7300 90° East 292 336 6,700 -840 Descending FlightAware
19:30 41.8840 -87.6970 90° East 288 331 6,400 -960 Descending FlightAware
19:31 41.8840 -87.6500 90° East 286 329 6,000 -540 Descending FlightAware
19:31 41.8840 -87.6180 90° East 275 316 6,000  Level FlightAware
19:32 41.8840 -87.5820 90° East 256 295 6,000  Level FlightAware
19:32 41.8840 -87.5480 90° East 242 278 6,000  Level FlightAware
19:32 41.8840 -87.5360 90° East 241 277 6,000  Level FlightAware
19:32 41.8840 -87.5000 90° East 214 246 6,000  Level FlightAware
19:33 41.8840 -87.4750 90° East 197 227 6,000  Level FlightAware
19:33 41.8840 -87.4480 90° East 196 226 6,000  Level FlightAware
19:33 41.8840 -87.4240 90° East 195 224 6,000  Level FlightAware
19:34 41.8830 -87.4040 94° East 195 224 6,000  Level FlightAware
19:34 41.8830 -87.3800 90° East 195 224 6,000 -300 Level FlightAware
19:34 41.8830 -87.3570 90° East 193 222 5,800 -900 Descending FlightAware
19:35 41.8850 -87.3480 73° East 188 216 5,600 -1,320 Descending FlightAware
19:35 41.8880 -87.3410 60° Northeast 182 209 5,500 -540 Descending FlightAware
19:35 41.8910 -87.3380 37° Northeast 178 205 5,500 -1,020 Level FlightAware
19:35 41.8960 -87.3340 31° Northeast 173 199 5,300 -1,140 Descending FlightAware
19:35 41.9040 -87.3330 North 169 194 5,200 -600 Descending FlightAware
19:35 41.9220 -87.3330 360° North 163 188 5,000 -300 Descending FlightAware
19:36 41.9360 -87.3340 357° North 155 178 5,000  Level FlightAware
19:36 41.9450 -87.3360 351° North 154 177 5,000  Level FlightAware
19:36 41.9560 -87.3520 313° West 162 186 5,000  Level FlightAware
19:37 41.9610 -87.3690 292° West 163 188 5,000  Level FlightAware
19:37 41.9660 -87.3890 289° West 160 184 5,000  Level FlightAware
19:37 41.9680 -87.3970 289° West 164 189 5,000  Level FlightAware
19:37 41.9690 -87.4160 274° West 167 192 5,000  Level FlightAware
19:38 41.9690 -87.4370 270° West 166 191 5,000  Level FlightAware
19:38 41.9690 -87.4630 270° West 166 191 5,000  Level FlightAware
19:39 41.9690 -87.4840 270° West 165 190 5,000  Level FlightAware
19:39 41.9690 -87.5040 270° West 164 189 5,000  Level FlightAware
19:39 41.9690 -87.5250 270° West 163 188 5,000  Level FlightAware
19:40 41.9690 -87.5510 270° West 164 189 5,000  Level FlightAware
19:40 41.9690 -87.5670 270° West 164 189 5,000 -360 Level FlightAware
19:40 41.9690 -87.5910 270° West 165 190 4,800 -840 Descending FlightAware
19:41 41.9690 -87.6130 270° West 170 196 4,400 -960 Descending FlightAware
19:41 41.9690 -87.6370 270° West 165 190 4,100 -840 Descending FlightAware
19:41 41.9690 -87.6570 270° West 160 184 3,800 -840 Descending FlightAware
19:42 41.9690 -87.6890 270° West 159 183 3,400 -840 Descending FlightAware
19:42 41.9690 -87.7090 270° West 158 182 3,100 -840 Descending FlightAware
19:42 41.9690 -87.7250 270° West 159 183 2,900 -900 Descending FlightAware
19:43 41.9690 -87.7480 270° West 160 184 2,500 -960 Descending FlightAware
19:43 41.9690 -87.7770 270° West 157 181 2,100 -780 Descending FlightAware
19:44 41.9690 -87.7870 270° West 153 176 2,000 -780 Descending FlightAware
19:44 41.9690 -87.8050 270° West 143 165 1,700 -780 Descending FlightAware
19:44 41.9690 -87.8310 270° West 141 162 1,400 -720 Descending FlightAware
19:45 41.9690 -87.8440 270° West 141 162 1,200 -840 Descending FlightAware
19:45 41.9690 -87.8620 270° West 142 163 900 -780 Descending FlightAware
19:45 41.9690 -87.8870 270° West 140 161 600 -360 Descending FlightAware
19:46 41.9690 -87.9070 270° West 140 161 600  Level FlightAware